Time;durP1;ratioP1;P1;durP2;ratioP2;P2;SDS_P1;SDS_P2;PMS_P1;PMS_P2;Temp;Humidity;BMP_temperature;BMP_pressure;BME280_temperature;BME280_humidity;BME280_pressure;Samples;Min_cycle;Max_cycle;Signal;HPM_P1;HPM_P2
2021/12/01 00:00:06;;;;;;;34.50;14.65;;;8.70;99.90;;;;;;5068603;28;20249;-68
2021/12/01 00:02:32;;;;;;;38.85;14.65;;;8.70;99.90;;;;;;5067589;28;20037;-68
2021/12/01 00:04:57;;;;;;;33.10;14.50;;;8.80;99.90;;;;;;5050899;28;20052;-68
2021/12/01 00:07:23;;;;;;;38.22;14.80;;;8.80;99.90;;;;;;5052664;28;20044;-68
2021/12/01 00:09:49;;;;;;;37.58;14.75;;;8.90;99.90;;;;;;5069522;28;20500;-68
2021/12/01 00:12:14;;;;;;;37.53;14.20;;;9.80;99.90;;;;;;5068793;28;20265;-68
2021/12/01 00:14:40;;;;;;;33.72;14.48;;;9.00;99.90;;;;;;5062269;28;20040;-68
2021/12/01 00:17:10;;;;;;;31.15;14.48;;;9.00;99.90;;;;;;5068290;28;20052;-68
2021/12/01 00:19:36;;;;;;;37.85;15.57;;;9.00;99.90;;;;;;5068409;28;20048;-68
2021/12/01 00:22:02;;;;;;;38.45;15.98;;;9.00;99.90;;;;;;5068232;28;20459;-68
2021/12/01 00:24:28;;;;;;;37.30;16.25;;;9.10;99.90;;;;;;5068532;28;20048;-67
2021/12/01 00:26:53;;;;;;;36.83;17.77;;;9.10;99.90;;;;;;5047606;28;20072;-68
2021/12/01 00:29:19;;;;;;;37.70;17.92;;;9.20;99.90;;;;;;5050979;28;20082;-68
2021/12/01 00:31:45;;;;;;;36.90;18.75;;;9.20;99.90;;;;;;5068017;28;20143;-68
2021/12/01 00:34:10;;;;;;;43.55;18.13;;;9.20;99.90;;;;;;5050744;28;20519;-68
2021/12/01 00:36:36;;;;;;;41.75;20.17;;;9.30;99.90;;;;;;5067733;28;20041;-68
2021/12/01 00:39:02;;;;;;;42.53;20.88;;;9.30;99.90;;;;;;5068725;28;20059;-68
2021/12/01 00:41:28;;;;;;;49.63;23.48;;;9.30;99.90;;;;;;5068206;28;20808;-68
2021/12/01 00:43:54;;;;;;;44.65;23.33;;;9.30;99.90;;;;;;5066386;28;20044;-68
2021/12/01 00:46:23;;;;;;;45.53;24.05;;;9.30;99.90;;;;;;5066024;28;20044;-68
2021/12/01 00:48:49;;;;;;;47.90;24.10;;;9.40;99.90;;;;;;5068558;28;20119;-68
2021/12/01 00:51:16;;;;;;;48.47;25.13;;;9.40;99.90;;;;;;5066848;28;20187;-67
2021/12/01 00:53:42;;;;;;;55.58;26.23;;;9.40;99.90;;;;;;5056052;28;20450;-68
2021/12/01 00:56:08;;;;;;;53.25;26.70;;;9.40;99.90;;;;;;5032288;28;20482;-68
2021/12/01 00:58:34;;;;;;;49.78;24.27;;;9.40;99.90;;;;;;5048213;28;20914;-67
2021/12/01 01:01:01;;;;;;;44.97;23.95;;;9.40;99.90;;;;;;5053253;28;20028;-68
2021/12/01 01:03:28;;;;;;;49.25;23.77;;;9.40;99.90;;;;;;5067444;28;20141;-68
2021/12/01 01:05:54;;;;;;;39.80;22.10;;;9.40;99.90;;;;;;5050354;28;20090;-67
2021/12/01 01:08:20;;;;;;;41.72;23.17;;;9.50;99.90;;;;;;5067032;28;20068;-68
2021/12/01 01:11:08;;;;;;;42.67;22.42;;;9.50;99.90;;;;;;5067942;28;20607;-67
2021/12/01 01:16:23;;;;;;;40.67;21.30;;;9.50;99.90;;;;;;5067263;28;20521;-68
2021/12/01 01:18:57;;;;;;;35.45;20.80;;;9.50;99.90;;;;;;5066253;28;20048;-68
2021/12/01 01:21:25;;;;;;;33.95;20.23;;;9.50;99.90;;;;;;5061526;28;20440;-68
2021/12/01 01:23:51;;;;;;;38.85;20.60;;;9.60;99.90;;;;;;5066730;28;20047;-67
2021/12/01 01:26:19;;;;;;;40.67;20.42;;;9.50;99.90;;;;;;5032727;28;20048;-68
2021/12/01 01:28:45;;;;;;;35.53;19.40;;;9.60;99.90;;;;;;5048300;28;20056;-68
2021/12/01 01:31:12;;;;;;;32.08;18.23;;;9.60;99.90;;;;;;5059885;28;20048;-68
2021/12/01 01:33:38;;;;;;;40.20;19.20;;;9.60;99.90;;;;;;5067081;28;20448;-68
2021/12/01 01:36:04;;;;;;;34.10;18.13;;;9.60;99.90;;;;;;5068230;28;20121;-68
2021/12/01 01:38:32;;;;;;;35.83;17.77;;;9.60;99.90;;;;;;5069064;28;20382;-68
2021/12/01 01:40:59;;;;;;;31.17;16.70;;;10.70;99.90;;;;;;5066761;28;20412;-67
2021/12/01 01:43:26;;;;;;;29.80;16.83;;;9.60;99.90;;;;;;5065900;28;20110;-67
2021/12/01 01:45:53;;;;;;;30.52;15.23;;;9.70;99.90;;;;;;5065887;28;20106;-67
2021/12/01 01:48:28;;;;;;;32.17;15.43;;;9.70;99.90;;;;;;5066061;28;20052;-68
2021/12/01 01:50:53;;;;;;;30.05;14.43;;;9.70;99.90;;;;;;5066931;28;20060;-68
2021/12/01 01:53:22;;;;;;;23.80;13.40;;;9.70;99.90;;;;;;5066354;28;20048;-68
2021/12/01 01:55:50;;;;;;;23.60;12.18;;;9.70;99.90;;;;;;5071277;28;20091;-68
2021/12/01 01:58:16;;;;;;;24.10;11.90;;;9.80;99.90;;;;;;5065685;28;20049;-68
2021/12/01 02:00:52;;;;;;;19.98;10.65;;;9.70;99.90;;;;;;5062975;28;20032;-67
2021/12/01 02:03:23;;;;;;;24.65;10.40;;;9.80;99.90;;;;;;5053271;28;20045;-67
2021/12/01 02:05:50;;;;;;;19.67;10.02;;;9.80;99.90;;;;;;5065656;28;20036;-69
2021/12/01 02:08:21;;;;;;;18.67;8.43;;;9.80;99.90;;;;;;5071573;28;20040;-68
2021/12/01 02:10:49;;;;;;;19.95;8.32;;;9.80;99.90;;;;;;5072236;28;20047;-68
2021/12/01 02:13:16;;;;;;;18.35;8.02;;;9.80;99.90;;;;;;5070934;28;20090;-68
2021/12/01 02:15:44;;;;;;;15.50;6.68;;;9.80;99.90;;;;;;5035115;28;20101;-68
2021/12/01 02:18:10;;;;;;;15.45;6.13;;;9.80;99.90;;;;;;5036382;28;20052;-68
2021/12/01 02:20:36;;;;;;;12.60;6.25;;;9.80;99.90;;;;;;5071199;28;20396;-67
2021/12/01 02:23:02;;;;;;;13.35;5.55;;;9.80;99.90;;;;;;5070298;28;20037;-67
2021/12/01 02:25:27;;;;;;;10.75;4.60;;;9.80;99.90;;;;;;5048344;28;20036;-67
2021/12/01 02:27:53;;;;;;;8.45;3.95;;;9.90;99.90;;;;;;5070075;28;20501;-68
2021/12/01 02:30:19;;;;;;;14.98;4.18;;;9.90;99.90;;;;;;5069677;28;20044;-68
2021/12/01 02:32:44;;;;;;;13.05;3.83;;;9.90;99.90;;;;;;5053259;28;20045;-68
2021/12/01 02:35:10;;;;;;;13.02;3.70;;;9.80;99.90;;;;;;5070014;28;20074;-68
2021/12/01 02:37:37;;;;;;;10.95;2.90;;;9.80;99.90;;;;;;5070027;28;20374;-67
2021/12/01 02:40:04;;;;;;;9.15;3.60;;;9.80;99.90;;;;;;5067242;28;20519;-68
2021/12/01 02:42:30;;;;;;;6.13;2.58;;;9.80;99.90;;;;;;5069978;28;20072;-68
2021/12/01 02:44:56;;;;;;;4.82;2.30;;;9.70;99.90;;;;;;5070424;28;20094;-68
2021/12/01 02:47:25;;;;;;;7.00;2.65;;;9.70;99.90;;;;;;5069182;28;20075;-68
2021/12/01 02:49:55;;;;;;;8.68;2.50;;;9.70;99.90;;;;;;5070605;28;20037;-67
2021/12/01 02:52:24;;;;;;;9.43;2.92;;;9.70;99.90;;;;;;5074970;28;20439;-68
2021/12/01 02:54:50;;;;;;;10.82;3.17;;;9.80;99.90;;;;;;5056539;28;20033;-67
2021/12/01 02:57:16;;;;;;;8.95;2.85;;;9.80;99.90;;;;;;5087992;28;20063;-68
2021/12/01 02:59:42;;;;;;;7.32;2.50;;;9.80;99.90;;;;;;5090740;28;20089;-68
2021/12/01 03:02:09;;;;;;;6.68;2.53;;;9.80;99.90;;;;;;5086470;28;20040;-68
2021/12/01 03:04:35;;;;;;;7.72;3.10;;;9.80;99.90;;;;;;5089633;28;20575;-68
2021/12/01 03:07:03;;;;;;;7.32;2.20;;;9.90;99.90;;;;;;5090007;28;20048;-67
2021/12/01 03:09:29;;;;;;;7.72;2.40;;;9.90;99.90;;;;;;5072346;28;20045;-67
2021/12/01 03:11:55;;;;;;;8.10;2.30;;;9.90;99.90;;;;;;5070368;28;20040;-68
2021/12/01 03:14:21;;;;;;;9.90;2.35;;;9.90;99.90;;;;;;5069684;28;20090;-68
2021/12/01 03:16:49;;;;;;;8.02;2.67;;;9.90;99.90;;;;;;5069552;28;20036;-67
2021/12/01 03:19:15;;;;;;;6.63;2.40;;;9.90;99.90;;;;;;5050563;28;20127;-67
2021/12/01 03:21:43;;;;;;;11.57;3.00;;;10.00;99.90;;;;;;5053865;28;20116;-68
2021/12/01 03:24:09;;;;;;;10.48;2.72;;;10.00;99.90;;;;;;5064931;28;20107;-67
2021/12/01 03:26:36;;;;;;;11.23;2.40;;;10.00;99.90;;;;;;5055315;28;20040;-67
2021/12/01 03:29:03;;;;;;;7.70;2.63;;;10.00;99.90;;;;;;5072180;28;20052;-67
2021/12/01 03:31:28;;;;;;;5.57;2.10;;;10.00;99.90;;;;;;5067943;28;20092;-68
2021/12/01 03:33:54;;;;;;;6.97;2.40;;;9.90;99.90;;;;;;5069406;28;20099;-67
2021/12/01 03:36:20;;;;;;;9.57;2.90;;;9.90;99.90;;;;;;5069553;28;20079;-67
2021/12/01 03:38:46;;;;;;;10.73;2.55;;;9.90;99.90;;;;;;5071214;28;20049;-68
2021/12/01 03:41:12;;;;;;;9.98;2.70;;;9.90;99.90;;;;;;5055795;28;20040;-67
2021/12/01 03:43:38;;;;;;;10.20;2.55;;;9.90;99.90;;;;;;5072181;28;20078;-68
2021/12/01 03:46:03;;;;;;;12.68;2.50;;;9.90;99.90;;;;;;5079275;28;20052;-68
2021/12/01 03:48:29;;;;;;;12.93;3.08;;;9.90;99.90;;;;;;5068249;28;20036;-67
2021/12/01 03:50:56;;;;;;;10.90;2.90;;;9.90;99.90;;;;;;5065588;28;20056;-68
2021/12/01 03:53:23;;;;;;;10.13;2.83;;;9.90;99.90;;;;;;5087364;28;20054;-67
2021/12/01 03:55:50;;;;;;;13.10;2.85;;;9.90;99.90;;;;;;5069302;28;20075;-67
2021/12/01 03:58:15;;;;;;;11.68;2.75;;;9.90;99.90;;;;;;5088539;28;20048;-67
2021/12/01 04:00:41;;;;;;;13.88;2.97;;;9.90;99.90;;;;;;5088445;28;20486;-67
2021/12/01 04:03:07;;;;;;;18.00;2.83;;;9.90;99.90;;;;;;5061821;28;20049;-67
2021/12/01 04:05:34;;;;;;;22.45;2.83;;;9.90;99.90;;;;;;5048102;28;20387;-68
2021/12/01 04:08:01;;;;;;;16.33;3.15;;;9.90;99.90;;;;;;5047597;28;20060;-68
2021/12/01 04:10:28;;;;;;;16.17;3.10;;;9.90;99.90;;;;;;5068757;28;20044;-68
2021/12/01 04:12:54;;;;;;;16.92;3.10;;;9.90;99.90;;;;;;5033916;28;20044;-67
2021/12/01 04:15:19;;;;;;;19.80;3.20;;;9.80;99.90;;;;;;5053319;28;20060;-68
2021/12/01 04:17:46;;;;;;;17.45;3.45;;;9.80;99.90;;;;;;5030669;28;20532;-68
2021/12/01 04:20:13;;;;;;;16.35;3.28;;;9.80;99.90;;;;;;5049338;28;20045;-67
2021/12/01 04:22:39;;;;;;;14.68;3.35;;;9.80;99.90;;;;;;5068466;28;20453;-67
2021/12/01 04:25:06;;;;;;;14.30;2.90;;;9.80;99.90;;;;;;5069007;28;20127;-68
2021/12/01 04:27:32;;;;;;;13.02;2.92;;;9.80;99.90;;;;;;5067901;28;20052;-68
2021/12/01 04:29:58;;;;;;;16.08;3.20;;;9.70;99.90;;;;;;5068307;28;20048;-68
2021/12/01 04:32:23;;;;;;;13.57;3.20;;;9.70;99.90;;;;;;5079659;28;20062;-68
2021/12/01 04:34:49;;;;;;;11.23;2.75;;;9.70;99.90;;;;;;5068153;28;20315;-68
2021/12/01 04:37:15;;;;;;;8.95;2.60;;;9.70;99.90;;;;;;5068146;28;20084;-68
2021/12/01 04:39:41;;;;;;;11.27;2.72;;;9.60;99.90;;;;;;5068258;28;20508;-68
2021/12/01 04:42:07;;;;;;;13.35;3.70;;;9.70;99.90;;;;;;5081591;28;20079;-68
2021/12/01 04:44:36;;;;;;;12.13;2.83;;;9.60;99.90;;;;;;5070503;28;20074;-67
2021/12/01 04:47:04;;;;;;;10.27;3.00;;;9.60;99.90;;;;;;5087500;28;20043;-68
2021/12/01 04:49:37;;;;;;;11.82;3.22;;;9.60;99.90;;;;;;5090979;28;20085;-67
2021/12/01 04:52:04;;;;;;;10.68;2.90;;;9.60;99.90;;;;;;5087666;28;20412;-67
2021/12/01 04:54:29;;;;;;;11.02;3.00;;;9.50;99.90;;;;;;5069072;28;20057;-68
2021/12/01 04:56:56;;;;;;;6.20;2.83;;;9.50;99.90;;;;;;5050348;28;20105;-68
2021/12/01 04:59:22;;;;;;;9.93;3.25;;;9.50;99.90;;;;;;5073633;28;20101;-68
2021/12/01 05:01:52;;;;;;;8.48;3.10;;;9.50;99.90;;;;;;5087655;28;20101;-68
2021/12/01 05:04:18;;;;;;;7.95;3.63;;;9.50;99.90;;;;;;5087227;28;20468;-68
2021/12/01 05:06:43;;;;;;;6.40;3.72;;;9.50;99.90;;;;;;5070412;28;20055;-67
2021/12/01 05:09:09;;;;;;;8.25;4.03;;;9.50;99.90;;;;;;5079598;28;20032;-68
2021/12/01 05:11:36;;;;;;;5.65;3.40;;;9.50;99.90;;;;;;5034241;28;20094;-68
2021/12/01 05:14:02;;;;;;;7.85;3.28;;;9.50;99.90;;;;;;5067492;28;20044;-68
2021/12/01 05:16:28;;;;;;;5.82;3.03;;;9.70;99.90;;;;;;5066817;28;20040;-68
2021/12/01 05:18:53;;;;;;;7.05;3.25;;;9.50;99.90;;;;;;5067889;28;20461;-68
2021/12/01 05:21:19;;;;;;;4.05;2.88;;;9.40;99.90;;;;;;5067915;28;20175;-68
2021/12/01 05:23:45;;;;;;;3.47;2.17;;;9.40;99.90;;;;;;5067196;28;20037;-68
2021/12/01 05:26:11;;;;;;;3.28;2.03;;;9.40;99.90;;;;;;5047713;28;20086;-68
2021/12/01 05:28:40;;;;;;;3.05;1.90;;;9.30;99.90;;;;;;5048105;28;20084;-67
2021/12/01 05:31:07;;;;;;;2.40;1.70;;;9.30;99.90;;;;;;5035423;28;20074;-68
2021/12/01 05:33:34;;;;;;;3.15;1.60;;;9.30;99.90;;;;;;5051061;28;20059;-68
2021/12/01 05:35:59;;;;;;;2.55;1.60;;;9.30;99.90;;;;;;5067665;28;20044;-68
2021/12/01 05:38:26;;;;;;;3.03;1.80;;;9.30;99.90;;;;;;5070561;28;20074;-68
2021/12/01 05:40:52;;;;;;;3.03;1.75;;;9.30;99.90;;;;;;5074232;28;20040;-68
2021/12/01 05:43:18;;;;;;;2.47;1.73;;;9.20;99.90;;;;;;5089021;28;20043;-68
2021/12/01 05:45:45;;;;;;;3.58;2.10;;;9.40;99.90;;;;;;5090529;28;20047;-68
2021/12/01 05:48:11;;;;;;;4.82;2.30;;;9.20;99.90;;;;;;5071407;28;20041;-68
2021/12/01 05:50:37;;;;;;;4.13;2.17;;;9.20;99.90;;;;;;5052432;28;20044;-68
2021/12/01 05:53:03;;;;;;;3.85;2.30;;;9.20;99.90;;;;;;5071453;28;20098;-68
2021/12/01 05:55:29;;;;;;;4.63;2.70;;;9.20;99.90;;;;;;5070551;28;20048;-68
2021/12/01 05:57:54;;;;;;;4.00;2.65;;;9.10;99.90;;;;;;5071512;28;20122;-68
2021/12/01 06:00:20;;;;;;;5.20;3.20;;;9.10;99.90;;;;;;5072241;28;20521;-68
2021/12/01 06:02:50;;;;;;;4.35;2.85;;;9.10;99.90;;;;;;5073339;28;20060;-68
2021/12/01 06:05:15;;;;;;;6.30;3.70;;;9.10;99.90;;;;;;5058606;28;20060;-68
2021/12/01 06:07:41;;;;;;;6.40;3.47;;;9.10;99.90;;;;;;5071113;28;20447;-68
2021/12/01 06:10:07;;;;;;;5.88;3.42;;;9.10;99.90;;;;;;5073031;28;20040;-68
2021/12/01 06:12:33;;;;;;;4.35;3.30;;;9.10;99.90;;;;;;5072853;28;20033;-68
2021/12/01 06:14:59;;;;;;;5.05;3.10;;;9.10;99.90;;;;;;5073438;28;20043;-68
2021/12/01 06:17:25;;;;;;;5.13;3.22;;;9.00;99.90;;;;;;5072005;28;20560;-68
2021/12/01 06:19:53;;;;;;;6.03;3.25;;;9.00;99.90;;;;;;5052883;28;20389;-67
2021/12/01 06:22:18;;;;;;;5.47;3.35;;;9.00;99.90;;;;;;5070356;28;20055;-67
2021/12/01 06:24:44;;;;;;;5.25;3.20;;;9.60;99.90;;;;;;5061752;28;20464;-68
2021/12/01 06:27:11;;;;;;;5.38;3.40;;;9.00;99.90;;;;;;5066727;28;20154;-67
2021/12/01 06:29:36;;;;;;;5.18;3.13;;;9.00;99.90;;;;;;5073397;28;20445;-67
2021/12/01 06:32:03;;;;;;;4.60;2.90;;;9.00;99.90;;;;;;5069183;28;20071;-67
2021/12/01 06:34:28;;;;;;;3.85;2.72;;;9.00;99.90;;;;;;5069743;28;20049;-67
2021/12/01 06:36:54;;;;;;;4.75;2.97;;;9.90;99.90;;;;;;5070574;28;20457;-68
2021/12/01 06:39:23;;;;;;;5.55;3.30;;;8.90;99.90;;;;;;5068019;28;20036;-79
2021/12/01 06:41:48;;;;;;;4.90;3.03;;;8.90;99.90;;;;;;5069085;28;20080;-70
2021/12/01 06:44:14;;;;;;;5.50;2.83;;;8.90;99.90;;;;;;5069946;28;20053;-70
2021/12/01 06:46:40;;;;;;;5.10;2.90;;;8.90;99.90;;;;;;5069563;28;20075;-70
2021/12/01 06:49:06;;;;;;;4.43;2.83;;;8.90;99.90;;;;;;5069783;28;20485;-70
2021/12/01 06:51:31;;;;;;;4.68;3.25;;;8.90;99.90;;;;;;5069462;28;20048;-69
2021/12/01 06:53:57;;;;;;;4.15;3.05;;;8.80;99.90;;;;;;5051865;28;20086;-70
2021/12/01 06:56:23;;;;;;;4.72;3.00;;;8.80;99.90;;;;;;5070151;28;20048;-70
2021/12/01 06:58:49;;;;;;;4.20;2.90;;;8.80;99.90;;;;;;5070814;28;20131;-70
2021/12/01 07:01:14;;;;;;;5.05;3.28;;;8.80;99.90;;;;;;5068423;28;20056;-70
2021/12/01 07:03:40;;;;;;;4.20;3.03;;;8.80;99.90;;;;;;5070641;28;20098;-70
2021/12/01 07:06:06;;;;;;;4.00;2.92;;;8.80;99.90;;;;;;5072063;28;20040;-70
2021/12/01 07:08:32;;;;;;;5.30;3.72;;;8.80;99.90;;;;;;5069428;28;20067;-69
2021/12/01 07:10:58;;;;;;;5.43;4.03;;;8.80;99.90;;;;;;5070420;28;20048;-66
2021/12/01 07:13:24;;;;;;;5.78;3.85;;;8.80;99.90;;;;;;5051440;28;20193;-67
2021/12/01 07:15:49;;;;;;;7.43;4.22;;;8.80;99.90;;;;;;5068226;28;20047;-67
2021/12/01 07:18:15;;;;;;;4.10;3.10;;;8.80;99.90;;;;;;5051035;28;20477;-67
2021/12/01 07:20:45;;;;;;;5.53;3.70;;;8.70;99.90;;;;;;5070384;28;20048;-69
2021/12/01 07:23:11;;;;;;;6.07;3.90;;;8.80;99.90;;;;;;5070536;28;20071;-69
2021/12/01 07:25:37;;;;;;;6.78;3.92;;;8.80;99.90;;;;;;5052963;28;20044;-70
2021/12/01 07:28:02;;;;;;;6.47;3.83;;;8.80;99.90;;;;;;5052219;28;20450;-70
2021/12/01 07:30:28;;;;;;;7.38;4.07;;;8.80;99.90;;;;;;5050108;28;20045;-69
2021/12/01 07:32:54;;;;;;;8.77;3.97;;;8.80;99.90;;;;;;5062901;28;20086;-70
2021/12/01 07:35:19;;;;;;;7.85;4.65;;;8.80;99.90;;;;;;5048403;28;20037;-70
2021/12/01 07:37:46;;;;;;;7.28;4.40;;;8.80;99.90;;;;;;5049925;28;20079;-70
2021/12/01 07:40:12;;;;;;;6.00;4.55;;;8.80;99.90;;;;;;5032236;28;20131;-70
2021/12/01 07:42:37;;;;;;;8.23;4.68;;;8.80;99.90;;;;;;5047506;28;20451;-70
2021/12/01 07:45:05;;;;;;;7.60;4.35;;;8.80;99.90;;;;;;5068092;28;20033;-70
2021/12/01 07:47:31;;;;;;;7.88;4.55;;;8.80;99.90;;;;;;5032476;28;20117;-70
2021/12/01 07:49:57;;;;;;;8.70;4.28;;;8.80;99.90;;;;;;5049217;28;20462;-72
2021/12/01 07:52:22;;;;;;;6.47;4.50;;;8.80;99.90;;;;;;5047926;28;20099;-70
2021/12/01 07:54:48;;;;;;;7.88;4.82;;;8.90;99.90;;;;;;5061497;28;20044;-71
2021/12/01 07:57:15;;;;;;;7.47;4.68;;;8.90;99.90;;;;;;5067815;28;20059;-71
2021/12/01 07:59:41;;;;;;;8.25;5.18;;;8.90;99.90;;;;;;5051308;28;20044;-71
2021/12/01 08:02:08;;;;;;;11.02;5.10;;;8.90;99.90;;;;;;5049972;28;20051;-70
2021/12/01 08:04:33;;;;;;;7.80;5.10;;;9.20;99.90;;;;;;5054448;28;20128;-70
2021/12/01 08:06:59;;;;;;;8.02;5.00;;;9.30;99.90;;;;;;5062994;28;20098;-70
2021/12/01 08:09:26;;;;;;;12.32;5.88;;;9.00;99.90;;;;;;5068277;28;20458;-73
2021/12/01 08:11:52;;;;;;;9.65;6.05;;;8.90;99.90;;;;;;5052978;28;20044;-73
2021/12/01 08:14:18;;;;;;;7.90;5.45;;;8.80;99.90;;;;;;5070210;28;20097;-74
2021/12/01 08:16:45;;;;;;;10.68;6.03;;;8.80;99.90;;;;;;5063085;28;20044;-73
2021/12/01 08:19:21;;;;;;;10.32;5.20;;;8.80;99.90;;;;;;5034196;28;20028;-72
2021/12/01 08:21:49;;;;;;;9.63;5.50;;;8.80;99.90;;;;;;5059592;28;20067;-72
2021/12/01 08:24:15;;;;;;;9.27;5.30;;;8.80;99.90;;;;;;5067957;28;20053;-72
2021/12/01 08:26:43;;;;;;;10.90;5.18;;;8.80;99.90;;;;;;5050412;28;20512;-72
2021/12/01 08:29:08;;;;;;;11.73;6.60;;;8.80;99.90;;;;;;5066871;28;20067;-72
2021/12/01 08:31:34;;;;;;;14.50;6.65;;;8.80;99.90;;;;;;5052899;28;20053;-72
2021/12/01 08:34:00;;;;;;;9.35;5.25;;;8.80;99.90;;;;;;5061994;28;20044;-72
2021/12/01 08:36:26;;;;;;;8.15;5.28;;;8.80;99.90;;;;;;5067617;28;20049;-71
2021/12/01 08:38:51;;;;;;;11.40;5.65;;;8.80;99.90;;;;;;5066495;28;20040;-71
2021/12/01 08:41:17;;;;;;;11.18;5.72;;;8.80;99.90;;;;;;5068237;28;20041;-71
2021/12/01 08:43:42;;;;;;;10.32;4.70;;;8.80;99.90;;;;;;5053365;28;20409;-71
2021/12/01 08:46:08;;;;;;;9.07;3.83;;;8.80;99.90;;;;;;5065890;28;20127;-71
2021/12/01 08:48:35;;;;;;;10.57;3.10;;;8.80;99.90;;;;;;5050135;28;20136;-71
2021/12/01 08:51:02;;;;;;;10.82;2.75;;;8.70;99.90;;;;;;5064118;28;20079;-72
2021/12/01 08:53:30;;;;;;;9.02;2.72;;;8.60;99.90;;;;;;5066877;28;20097;-70
2021/12/01 08:55:57;;;;;;;11.30;2.58;;;8.60;99.90;;;;;;5050169;28;20048;-70
2021/12/01 08:58:23;;;;;;;13.38;3.00;;;9.10;99.90;;;;;;5067225;28;20048;-70
2021/12/01 09:00:49;;;;;;;11.57;2.92;;;8.50;99.90;;;;;;5063386;28;20045;-70
2021/12/01 09:03:18;;;;;;;15.23;2.80;;;8.50;99.90;;;;;;5066090;28;20497;-71
2021/12/01 09:05:45;;;;;;;18.30;3.40;;;8.80;99.90;;;;;;5067278;28;20076;-70
2021/12/01 09:08:12;;;;;;;10.57;2.53;;;8.50;99.90;;;;;;5065877;28;20072;-70
2021/12/01 09:10:38;;;;;;;14.07;2.60;;;9.10;99.90;;;;;;5045925;28;20049;-70
2021/12/01 09:13:06;;;;;;;14.63;2.53;;;8.50;99.90;;;;;;5036470;28;20401;-71
2021/12/01 09:15:32;;;;;;;10.38;1.80;;;8.50;99.90;;;;;;5065271;28;20501;-70
2021/12/01 09:17:57;;;;;;;8.32;2.22;;;8.40;99.90;;;;;;5067367;28;20127;-70
2021/12/01 09:20:24;;;;;;;11.65;2.42;;;8.40;99.90;;;;;;5066958;28;20040;-68
2021/12/01 09:22:51;;;;;;;8.90;2.13;;;8.40;99.90;;;;;;5049437;28;20155;-70
2021/12/01 09:25:17;;;;;;;12.23;2.67;;;8.50;99.90;;;;;;5052796;28;20040;-70
2021/12/01 09:27:45;;;;;;;9.38;2.30;;;8.40;99.90;;;;;;5047788;28;20099;-71
2021/12/01 09:30:14;;;;;;;9.23;2.03;;;8.40;99.90;;;;;;5045801;28;20037;-71
2021/12/01 09:32:40;;;;;;;9.45;1.85;;;8.50;99.90;;;;;;5048395;28;20124;-71
2021/12/01 09:35:07;;;;;;;9.40;2.05;;;8.50;99.90;;;;;;5047129;28;20628;-71
2021/12/01 09:37:33;;;;;;;11.55;2.15;;;8.50;99.90;;;;;;5028499;28;20379;-70
2021/12/01 09:39:59;;;;;;;10.50;2.17;;;8.50;99.90;;;;;;5048637;28;20039;-70
2021/12/01 09:42:25;;;;;;;11.13;2.10;;;8.60;99.90;;;;;;5046744;28;20048;-70
2021/12/01 09:44:52;;;;;;;10.88;2.20;;;8.70;99.90;;;;;;5029429;28;20040;-70
2021/12/01 09:47:20;;;;;;;12.98;2.15;;;8.70;99.90;;;;;;5045562;28;20053;-70
2021/12/01 09:49:46;;;;;;;8.98;2.30;;;8.70;99.90;;;;;;5046867;28;20041;-70
2021/12/01 09:52:12;;;;;;;10.55;2.10;;;8.70;99.90;;;;;;5029515;28;20056;-70
2021/12/01 09:54:39;;;;;;;9.75;1.70;;;8.60;99.90;;;;;;5049138;28;20444;-71
2021/12/01 09:57:12;;;;;;;10.30;2.15;;;8.80;99.90;;;;;;5014162;28;20410;-71
2021/12/01 09:59:38;;;;;;;9.95;1.80;;;8.80;99.90;;;;;;5047652;28;20040;-71
2021/12/01 10:02:04;;;;;;;9.43;1.88;;;9.00;99.90;;;;;;5046591;28;20041;-74
2021/12/01 10:04:30;;;;;;;9.40;1.88;;;9.30;99.90;;;;;;5045956;28;20132;-70
2021/12/01 10:07:12;;;;;;;10.88;2.05;;;8.90;99.90;;;;;;5047932;28;20095;-72
2021/12/01 10:09:46;;;;;;;9.18;2.40;;;9.00;99.90;;;;;;5061936;28;20049;-72
2021/12/01 10:12:12;;;;;;;14.73;2.47;;;9.20;99.90;;;;;;5065995;28;20529;-73
2021/12/01 10:14:44;;;;;;;10.68;2.38;;;9.50;99.90;;;;;;5042306;28;20124;-72
2021/12/01 10:17:10;;;;;;;12.98;2.50;;;9.70;99.90;;;;;;5068356;28;20044;-72
2021/12/01 10:19:35;;;;;;;12.73;2.67;;;9.70;99.90;;;;;;5052343;28;20114;-72
2021/12/01 10:22:09;;;;;;;16.90;3.08;;;9.60;99.90;;;;;;5052928;28;20127;-72
2021/12/01 10:24:36;;;;;;;20.55;3.00;;;9.40;99.90;;;;;;5044120;28;20052;-71
2021/12/01 10:27:08;;;;;;;16.40;3.05;;;9.30;99.90;;;;;;5033139;28;20049;-71
2021/12/01 10:29:41;;;;;;;13.05;2.85;;;9.20;99.90;;;;;;5068583;28;20282;-71
2021/12/01 10:32:07;;;;;;;14.98;2.58;;;9.20;99.90;;;;;;5052502;28;20041;-71
2021/12/01 10:34:39;;;;;;;13.80;3.20;;;9.10;99.90;;;;;;5035913;28;20360;-72
2021/12/01 10:37:25;;;;;;;16.50;3.17;;;9.10;99.90;;;;;;5052953;28;20139;-71
2021/12/01 10:40:10;;;;;;;19.52;3.33;;;9.00;99.90;;;;;;5052092;28;20132;-71
2021/12/01 10:42:58;;;;;;;15.75;2.90;;;9.00;99.90;;;;;;5043879;28;20095;-71
2021/12/01 10:45:46;;;;;;;17.13;3.10;;;8.90;99.90;;;;;;5031863;28;20064;-71
2021/12/01 10:48:23;;;;;;;17.92;3.13;;;8.90;99.90;;;;;;5033936;28;20135;-72
2021/12/01 10:50:49;;;;;;;16.15;2.75;;;8.80;99.90;;;;;;5050477;28;20041;-71
2021/12/01 10:53:18;;;;;;;12.60;2.90;;;8.80;99.90;;;;;;5049685;28;20090;-72
2021/12/01 10:55:51;;;;;;;16.95;3.10;;;9.70;99.90;;;;;;5031955;28;20512;-72
2021/12/01 10:58:18;;;;;;;14.02;2.95;;;9.00;99.90;;;;;;5049745;28;20482;-71
2021/12/01 11:00:49;;;;;;;15.35;3.00;;;9.10;99.90;;;;;;5047985;28;20076;-73
2021/12/01 11:03:18;;;;;;;14.38;3.08;;;9.90;99.90;;;;;;5048533;28;20041;-72
2021/12/01 11:06:07;;;;;;;11.75;2.40;;;10.40;99.90;;;;;;5031625;28;20083;-72
2021/12/01 11:08:37;;;;;;;9.52;2.17;;;10.80;99.90;;;;;;5031809;28;20037;-72
2021/12/01 11:11:08;;;;;;;12.13;2.42;;;10.70;99.90;;;;;;5050179;28;20098;-73
2021/12/01 11:13:37;;;;;;;12.43;2.53;;;10.40;99.90;;;;;;5031212;28;20051;-72
2021/12/01 11:16:08;;;;;;;16.65;2.63;;;10.00;99.90;;;;;;5048782;28;20178;-73
2021/12/01 11:18:38;;;;;;;15.70;2.45;;;9.80;99.90;;;;;;5049494;28;20343;-71
2021/12/01 11:21:11;;;;;;;13.32;2.97;;;9.60;99.90;;;;;;5031346;28;20060;-72
2021/12/01 11:23:40;;;;;;;15.82;2.70;;;9.50;99.90;;;;;;5015338;28;20516;-70
2021/12/01 11:26:20;;;;;;;12.32;2.85;;;9.50;99.90;;;;;;5049826;28;20094;-70
2021/12/01 11:28:49;;;;;;;14.15;2.90;;;9.40;99.90;;;;;;5048887;28;20044;-70
2021/12/01 11:31:20;;;;;;;13.07;3.33;;;9.30;99.90;;;;;;5030961;28;20356;-70
2021/12/01 11:33:46;;;;;;;14.75;2.53;;;9.20;99.90;;;;;;5049251;28;20044;-70
2021/12/01 11:36:18;;;;;;;14.45;3.55;;;9.20;99.90;;;;;;5048875;28;20052;-71
2021/12/01 11:38:51;;;;;;;16.52;3.15;;;9.10;99.90;;;;;;5032012;28;20118;-70
2021/12/01 11:41:16;;;;;;;24.55;3.85;;;9.20;99.90;;;;;;5048441;28;20116;-71
2021/12/01 11:43:43;;;;;;;22.35;3.97;;;9.10;99.90;;;;;;5015415;28;20121;-71
2021/12/01 11:46:09;;;;;;;20.90;4.80;;;9.00;99.90;;;;;;5049294;28;20052;-71
2021/12/01 11:48:39;;;;;;;18.45;3.80;;;8.90;99.90;;;;;;5048760;28;20049;-71
2021/12/01 11:51:36;;;;;;;22.27;4.10;;;8.80;99.90;;;;;;5031244;28;20493;-72
2021/12/01 11:54:20;;;;;;;19.05;4.32;;;8.80;99.90;;;;;;5014931;28;20060;-71
2021/12/01 11:57:07;;;;;;;20.17;3.97;;;8.70;99.90;;;;;;5030845;28;20049;-71
2021/12/01 11:59:47;;;;;;;22.67;3.80;;;8.60;99.90;;;;;;5048801;28;20076;-71
2021/12/01 12:02:16;;;;;;;22.60;3.60;;;8.50;99.90;;;;;;5029522;28;20055;-72
2021/12/01 12:04:56;;;;;;;16.27;3.55;;;8.50;99.90;;;;;;5047883;28;20070;-72
2021/12/01 12:07:31;;;;;;;23.27;3.90;;;8.50;99.90;;;;;;5048186;28;20439;-71
2021/12/01 12:10:17;;;;;;;18.40;3.30;;;8.60;99.90;;;;;;5048904;28;20043;-72
2021/12/01 12:13:02;;;;;;;22.17;5.03;;;8.60;99.90;;;;;;5015986;28;20045;-72
2021/12/01 12:15:46;;;;;;;23.30;4.20;;;8.60;99.90;;;;;;5047214;28;20056;-70
2021/12/01 12:18:40;;;;;;;18.35;3.35;;;8.70;99.90;;;;;;5041618;28;20052;-71
2021/12/01 12:21:14;;;;;;;21.20;3.67;;;8.60;99.90;;;;;;5048644;28;20049;-71
2021/12/01 12:23:41;;;;;;;13.40;3.50;;;8.60;99.90;;;;;;5030928;28;20089;-70
2021/12/01 12:26:10;;;;;;;18.38;3.47;;;8.60;99.90;;;;;;5030354;28;20489;-71
2021/12/01 12:28:38;;;;;;;18.85;3.38;;;8.50;99.90;;;;;;5048299;28;20095;-70
2021/12/01 12:31:27;;;;;;;14.43;3.30;;;9.10;99.90;;;;;;5047418;28;20110;-70
2021/12/01 12:33:59;;;;;;;10.68;2.58;;;8.90;99.90;;;;;;5030115;28;20490;-71
2021/12/01 12:36:43;;;;;;;17.52;3.67;;;8.50;99.90;;;;;;5048116;28;20150;-72
2021/12/01 12:39:10;;;;;;;16.70;2.83;;;8.60;99.90;;;;;;5048557;28;20434;-71
2021/12/01 12:41:54;;;;;;;15.88;2.92;;;8.60;99.90;;;;;;5048146;28;20358;-70
2021/12/01 12:44:43;;;;;;;11.45;3.08;;;8.50;99.90;;;;;;5029114;28;20079;-72
2021/12/01 12:47:28;;;;;;;14.70;2.78;;;8.50;99.90;;;;;;5028012;28;20125;-72
2021/12/01 12:49:56;;;;;;;12.23;2.65;;;8.10;99.90;;;;;;5048355;28;20045;-72
2021/12/01 12:52:24;;;;;;;19.15;3.92;;;8.40;99.90;;;;;;5047465;28;20060;-72
2021/12/01 12:54:58;;;;;;;15.38;2.35;;;8.40;99.90;;;;;;5069242;28;20040;-72